sensor_id;sensor_type;location;lat;lon;timestamp;pressure;altitude;pressure_sealevel;temperature;humidity
60307;BME280;46155;52.364;6.580;2022-12-10T04:01:55;100669.94;;;-2.42;100.00
60307;BME280;46155;52.364;6.580;2022-12-10T04:04:20;100673.25;;;-2.43;100.00
60307;BME280;46155;52.364;6.580;2022-12-10T04:06:45;100668.69;;;-2.46;100.00
60307;BME280;46155;52.364;6.580;2022-12-10T04:09:13;100675.25;;;-2.40;100.00
60307;BME280;46155;52.364;6.580;2022-12-10T04:11:42;100675.09;;;-2.42;100.00
60307;BME280;46155;52.364;6.580;2022-12-10T04:14:12;100680.41;;;-2.40;100.00
60307;BME280;46155;52.364;6.580;2022-12-10T04:16:56;100676.41;;;-2.46;100.00
60307;BME280;46155;52.364;6.580;2022-12-10T04:19:22;100677.19;;;-2.54;100.00
60307;BME280;46155;52.364;6.580;2022-12-10T04:21:47;100686.00;;;-2.52;100.00
60307;BME280;46155;52.364;6.580;2022-12-10T04:24:33;100684.50;;;-2.50;100.00
60307;BME280;46155;52.364;6.580;2022-12-10T04:27:23;100681.22;;;-2.49;100.00
60307;BME280;46155;52.364;6.580;2022-12-10T04:29:49;100686.34;;;-2.49;100.00
60307;BME280;46155;52.364;6.580;2022-12-10T04:32:16;100693.31;;;-2.48;100.00
60307;BME280;46155;52.364;6.580;2022-12-10T04:34:41;100687.25;;;-2.48;100.00
60307;BME280;46155;52.364;6.580;2022-12-10T04:37:07;100687.84;;;-2.51;100.00
60307;BME280;46155;52.364;6.580;2022-12-10T04:39:32;100687.09;;;-2.50;100.00
60307;BME280;46155;52.364;6.580;2022-12-10T04:41:59;100679.38;;;-2.50;100.00
60307;BME280;46155;52.364;6.580;2022-12-10T04:44:25;100671.72;;;-2.57;100.00
60307;BME280;46155;52.364;6.580;2022-12-10T04:46:50;100680.88;;;-2.52;100.00
60307;BME280;46155;52.364;6.580;2022-12-10T04:49:16;100679.69;;;-2.47;100.00
60307;BME280;46155;52.364;6.580;2022-12-10T04:51:42;100680.88;;;-2.52;100.00
60307;BME280;46155;52.364;6.580;2022-12-10T04:54:08;100685.94;;;-2.45;100.00
60307;BME280;46155;52.364;6.580;2022-12-10T04:56:34;100689.41;;;-2.44;100.00
60307;BME280;46155;52.364;6.580;2022-12-10T04:59:00;100697.91;;;-2.45;100.00
60307;BME280;46155;52.364;6.580;2022-12-10T05:01:26;100683.03;;;-2.48;100.00
60307;BME280;46155;52.364;6.580;2022-12-10T05:03:52;100688.50;;;-2.45;100.00
60307;BME280;46155;52.364;6.580;2022-12-10T05:06:18;100683.03;;;-2.48;100.00
60307;BME280;46155;52.364;6.580;2022-12-10T05:08:44;100687.78;;;-2.44;100.00
60307;BME280;46155;52.364;6.580;2022-12-10T05:11:15;100688.50;;;-2.45;100.00
60307;BME280;46155;52.364;6.580;2022-12-10T05:13:41;100690.75;;;-2.48;100.00
60307;BME280;46155;52.364;6.580;2022-12-10T05:16:09;100690.59;;;-2.49;100.00
60307;BME280;46155;52.364;6.580;2022-12-10T05:18:35;100692.56;;;-2.47;100.00
60307;BME280;46155;52.364;6.580;2022-12-10T05:21:03;100679.38;;;-2.50;100.00
60307;BME280;46155;52.364;6.580;2022-12-10T05:23:28;100675.72;;;-2.52;100.00
60307;BME280;46155;52.364;6.580;2022-12-10T05:26:02;100681.78;;;-2.51;100.00
60307;BME280;46155;52.364;6.580;2022-12-10T05:28:29;100683.84;;;-2.56;100.00
60307;BME280;46155;52.364;6.580;2022-12-10T05:30:55;100676.78;;;-2.66;100.00
60307;BME280;46155;52.364;6.580;2022-12-10T05:33:20;100689.00;;;-2.56;100.00
60307;BME280;46155;52.364;6.580;2022-12-10T05:38:18;100693.97;;;-2.57;100.00
60307;BME280;46155;52.364;6.580;2022-12-10T05:40:43;100682.25;;;-2.63;100.00
60307;BME280;46155;52.364;6.580;2022-12-10T05:43:09;100692.78;;;-2.52;100.00
60307;BME280;46155;52.364;6.580;2022-12-10T05:45:34;100703.59;;;-2.48;100.00
60307;BME280;46155;52.364;6.580;2022-12-10T05:47:59;100701.38;;;-2.45;100.00
60307;BME280;46155;52.364;6.580;2022-12-10T05:50:26;100698.63;;;-2.46;100.00
60307;BME280;46155;52.364;6.580;2022-12-10T05:52:51;100700.03;;;-2.41;100.00
60307;BME280;46155;52.364;6.580;2022-12-10T05:55:16;100700.41;;;-2.38;100.00
60307;BME280;46155;52.364;6.580;2022-12-10T05:57:42;100696.16;;;-2.37;100.00
60307;BME280;46155;52.364;6.580;2022-12-10T06:00:08;100702.81;;;-2.39;100.00
60307;BME280;46155;52.364;6.580;2022-12-10T06:02:33;100701.13;;;-2.39;100.00
60307;BME280;46155;52.364;6.580;2022-12-10T06:04:58;100699.56;;;-2.30;100.00
60307;BME280;46155;52.364;6.580;2022-12-10T06:07:24;100702.75;;;-2.16;100.00
60307;BME280;46155;52.364;6.580;2022-12-10T06:09:50;100708.38;;;-2.12;100.00
60307;BME280;46155;52.364;6.580;2022-12-10T06:12:15;100701.47;;;-2.20;100.00
60307;BME280;46155;52.364;6.580;2022-12-10T06:14:41;100676.66;;;-2.35;100.00
60307;BME280;46155;52.364;6.580;2022-12-10T06:17:06;100690.94;;;-2.30;100.00
60307;BME280;46155;52.364;6.580;2022-12-10T06:19:31;100680.41;;;-2.40;100.00
60307;BME280;46155;52.364;6.580;2022-12-10T06:21:56;100703.78;;;-2.30;100.00
60307;BME280;46155;52.364;6.580;2022-12-10T06:24:23;100699.78;;;-2.35;100.00
60307;BME280;46155;52.364;6.580;2022-12-10T06:26:49;100706.44;;;-2.37;100.00
60307;BME280;46155;52.364;6.580;2022-12-10T06:29:14;100701.28;;;-2.37;100.00
60307;BME280;46155;52.364;6.580;2022-12-10T06:31:39;100704.44;;;-2.40;100.00
60307;BME280;46155;52.364;6.580;2022-12-10T06:34:05;100709.75;;;-2.38;100.00
60307;BME280;46155;52.364;6.580;2022-12-10T06:36:30;100700.28;;;-2.47;100.00
60307;BME280;46155;52.364;6.580;2022-12-10T06:38:56;100715.28;;;-2.43;100.00
60307;BME280;46155;52.364;6.580;2022-12-10T06:41:21;100716.06;;;-2.44;100.00
60307;BME280;46155;52.364;6.580;2022-12-10T06:43:47;100712.06;;;-2.49;100.00
60307;BME280;46155;52.364;6.580;2022-12-10T06:46:15;100724.16;;;-2.48;100.00
60307;BME280;46155;52.364;6.580;2022-12-10T06:48:41;100730.13;;;-2.56;100.00
60307;BME280;46155;52.364;6.580;2022-12-10T06:51:07;100726.66;;;-2.56;100.00
60307;BME280;46155;52.364;6.580;2022-12-10T06:53:34;100732.13;;;-2.53;100.00
60307;BME280;46155;52.364;6.580;2022-12-10T06:56:01;100735.25;;;-2.56;100.00
60307;BME280;46155;52.364;6.580;2022-12-10T06:58:28;100733.41;;;-2.57;100.00
60307;BME280;46155;52.364;6.580;2022-12-10T07:00:54;100739.28;;;-2.58;100.00
60307;BME280;46155;52.364;6.580;2022-12-10T07:03:19;100733.09;;;-2.60;100.00
60307;BME280;46155;52.364;6.580;2022-12-10T07:05:44;100739.66;;;-2.55;100.00
60307;BME280;46155;52.364;6.580;2022-12-10T07:08:10;100740.22;;;-2.57;100.00
60307;BME280;46155;52.364;6.580;2022-12-10T07:10:36;100730.97;;;-2.71;100.00
60307;BME280;46155;52.364;6.580;2022-12-10T07:13:02;100745.44;;;-2.65;100.00
60307;BME280;46155;52.364;6.580;2022-12-10T07:15:27;100735.56;;;-2.69;100.00
60307;BME280;46155;52.364;6.580;2022-12-10T07:17:53;100750.75;;;-2.63;100.00
60307;BME280;46155;52.364;6.580;2022-12-10T07:20:19;100745.94;;;-2.60;100.00
60307;BME280;46155;52.364;6.580;2022-12-10T07:22:44;100745.53;;;-2.56;100.00
60307;BME280;46155;52.364;6.580;2022-12-10T07:25:09;100752.69;;;-2.53;100.00
60307;BME280;46155;52.364;6.580;2022-12-10T07:27:35;100746.59;;;-2.54;100.00
60307;BME280;46155;52.364;6.580;2022-12-10T07:30:01;100745.53;;;-2.56;100.00
60307;BME280;46155;52.364;6.580;2022-12-10T07:32:27;100755.25;;;-2.53;100.00
60307;BME280;46155;52.364;6.580;2022-12-10T07:34:52;100744.88;;;-2.62;100.00
60307;BME280;46155;52.364;6.580;2022-12-10T07:37:17;100758.72;;;-2.53;100.00
60307;BME280;46155;52.364;6.580;2022-12-10T07:39:43;100746.34;;;-2.64;100.00
60307;BME280;46155;52.364;6.580;2022-12-10T07:42:08;100755.09;;;-2.55;100.00
60307;BME280;46155;52.364;6.580;2022-12-10T07:44:34;100759.47;;;-2.54;100.00
60307;BME280;46155;52.364;6.580;2022-12-10T07:46:59;100756.72;;;-2.55;100.00
60307;BME280;46155;52.364;6.580;2022-12-10T07:49:24;100757.28;;;-2.58;100.00
60307;BME280;46155;52.364;6.580;2022-12-10T07:51:50;100762.81;;;-2.55;100.00
60307;BME280;46155;52.364;6.580;2022-12-10T07:54:16;100768.63;;;-2.49;100.00
60307;BME280;46155;52.364;6.580;2022-12-10T07:56:42;100771.69;;;-2.44;100.00
60307;BME280;46155;52.364;6.580;2022-12-10T07:59:08;100767.81;;;-2.40;100.00
60307;BME280;46155;52.364;6.580;2022-12-10T08:01:33;100776.19;;;-2.34;100.00
60307;BME280;46155;52.364;6.580;2022-12-10T08:03:59;100778.69;;;-2.27;100.00
60307;BME280;46155;52.364;6.580;2022-12-10T08:06:26;100777.91;;;-2.19;100.00
60307;BME280;46155;52.364;6.580;2022-12-10T08:08:52;100773.50;;;-2.20;100.00
60307;BME280;46155;52.364;6.580;2022-12-10T08:11:19;100783.44;;;-2.23;100.00
60307;BME280;46155;52.364;6.580;2022-12-10T08:13:45;100779.97;;;-2.23;100.00
60307;BME280;46155;52.364;6.580;2022-12-10T08:16:13;100783.44;;;-2.23;100.00
60307;BME280;46155;52.364;6.580;2022-12-10T08:18:39;100778.31;;;-2.23;100.00
60307;BME280;46155;52.364;6.580;2022-12-10T08:21:06;100791.16;;;-2.23;100.00
60307;BME280;46155;52.364;6.580;2022-12-10T08:23:32;100791.16;;;-2.23;100.00
60307;BME280;46155;52.364;6.580;2022-12-10T08:25:57;100788.69;;;-2.14;100.00
60307;BME280;46155;52.364;6.580;2022-12-10T08:28:22;100795.09;;;-2.11;100.00
60307;BME280;46155;52.364;6.580;2022-12-10T08:30:48;100796.94;;;-2.10;100.00
60307;BME280;46155;52.364;6.580;2022-12-10T08:33:14;100796.94;;;-2.10;100.00
60307;BME280;46155;52.364;6.580;2022-12-10T08:35:39;100805.78;;;-2.15;100.00
60307;BME280;46155;52.364;6.580;2022-12-10T08:38:05;100807.31;;;-2.01;100.00
60307;BME280;46155;52.364;6.580;2022-12-10T08:40:30;100804.25;;;-1.10;100.00
60307;BME280;46155;52.364;6.580;2022-12-10T08:42:55;100806.09;;;-1.09;100.00
60307;BME280;46155;52.364;6.580;2022-12-10T08:45:21;100808.69;;;-1.25;100.00
60307;BME280;46155;52.364;6.580;2022-12-10T08:47:46;100808.84;;;-1.39;100.00
60307;BME280;46155;52.364;6.580;2022-12-10T08:50:11;100810.84;;;-1.52;100.00
60307;BME280;46155;52.364;6.580;2022-12-10T08:52:37;100801.28;;;-1.69;100.00
60307;BME280;46155;52.364;6.580;2022-12-10T08:55:02;100812.50;;;-1.69;100.00
60307;BME280;46155;52.364;6.580;2022-12-10T08:57:28;100810.69;;;-1.70;100.00
60307;BME280;46155;52.364;6.580;2022-12-10T08:59:53;100813.34;;;-1.61;100.00
60307;BME280;46155;52.364;6.580;2022-12-10T09:02:18;100819.06;;;-1.64;100.00
60307;BME280;46155;52.364;6.580;2022-12-10T09:04:43;100818.00;;;-1.66;100.00
60307;BME280;46155;52.364;6.580;2022-12-10T09:07:11;100819.16;;;-1.71;100.00
60307;BME280;46155;52.364;6.580;2022-12-10T09:09:36;100824.97;;;-1.65;100.00
60307;BME280;46155;52.364;6.580;2022-12-10T09:12:02;100821.47;;;-1.49;100.00
60307;BME280;46155;52.364;6.580;2022-12-10T09:14:27;100813.22;;;-1.22;100.00
60307;BME280;46155;52.364;6.580;2022-12-10T09:16:52;100821.25;;;-0.87;100.00
60307;BME280;46155;52.364;6.580;2022-12-10T09:19:18;100827.44;;;-0.69;100.00
60307;BME280;46155;52.364;6.580;2022-12-10T09:21:43;100821.59;;;-0.59;100.00
60307;BME280;46155;52.364;6.580;2022-12-10T09:24:08;100817.81;;;-0.79;100.00
60307;BME280;46155;52.364;6.580;2022-12-10T09:26:34;100816.50;;;-0.91;100.00
60307;BME280;46155;52.364;6.580;2022-12-10T09:28:59;100820.97;;;-1.06;100.00
60307;BME280;46155;52.364;6.580;2022-12-10T09:31:25;100830.84;;;-1.18;100.00
60307;BME280;46155;52.364;6.580;2022-12-10T09:33:52;100837.84;;;-1.17;100.00
60307;BME280;46155;52.364;6.580;2022-12-10T09:36:19;100843.31;;;-1.14;100.00
60307;BME280;46155;52.364;6.580;2022-12-10T09:38:44;100843.31;;;-1.14;100.00
60307;BME280;46155;52.364;6.580;2022-12-10T09:44:05;100856.28;;;-1.21;100.00
60307;BME280;46155;52.364;6.580;2022-12-10T09:50:00;100850.72;;;-1.33;100.00
60307;BME280;46155;52.364;6.580;2022-12-10T09:52:04;100852.22;;;-1.35;100.00
60307;BME280;46155;52.364;6.580;2022-12-10T09:54:33;100833.22;;;-1.44;100.00
60307;BME280;46155;52.364;6.580;2022-12-10T09:57:03;100830.63;;;-1.44;100.00
60307;BME280;46155;52.364;6.580;2022-12-10T09:59:40;100847.06;;;-1.35;100.00
60307;BME280;46155;52.364;6.580;2022-12-10T10:02:16;100851.31;;;-1.35;100.00
60307;BME280;46155;52.364;6.580;2022-12-10T10:04:45;100850.97;;;-1.39;100.00
60307;BME280;46155;52.364;6.580;2022-12-10T10:07:25;100854.44;;;-1.22;100.00
60307;BME280;46155;52.364;6.580;2022-12-10T10:09:57;100859.78;;;-1.05;100.00
60307;BME280;46155;52.364;6.580;2022-12-10T10:12:23;100855.91;;;-0.92;100.00
60307;BME280;46155;52.364;6.580;2022-12-10T10:14:48;100857.34;;;-0.87;100.00
60307;BME280;46155;52.364;6.580;2022-12-10T10:17:29;100857.59;;;-0.52;100.00
60307;BME280;46155;52.364;6.580;2022-12-10T10:19:56;100852.81;;;-0.07;100.00
60307;BME280;46155;52.364;6.580;2022-12-10T10:22:21;100863.69;;;-0.18;100.00
60307;BME280;46155;52.364;6.580;2022-12-10T10:24:46;100857.31;;;-0.46;100.00
60307;BME280;46155;52.364;6.580;2022-12-10T10:29:42;100864.13;;;-0.47;100.00
60307;BME280;46155;52.364;6.580;2022-12-10T10:32:19;100855.75;;;-0.53;100.00
60307;BME280;46155;52.364;6.580;2022-12-10T10:34:47;100853.97;;;-0.70;100.00
60307;BME280;46155;52.364;6.580;2022-12-10T10:37:24;100858.75;;;-0.57;100.00
60307;BME280;46155;52.364;6.580;2022-12-10T10:39:52;100859.34;;;-0.60;100.00
60307;BME280;46155;52.364;6.580;2022-12-10T10:42:36;100859.53;;;-0.74;100.00
60307;BME280;46155;52.364;6.580;2022-12-10T10:45:05;100854.16;;;-0.84;100.00
60307;BME280;46155;52.364;6.580;2022-12-10T10:47:33;100861.00;;;-0.85;100.00
60307;BME280;46155;52.364;6.580;2022-12-10T10:50:00;100867.72;;;-0.94;100.00
60307;BME280;46155;52.364;6.580;2022-12-10T10:52:30;100861.25;;;-1.07;100.00
60307;BME280;46155;52.364;6.580;2022-12-10T10:54:55;100865.75;;;-1.13;100.00
60307;BME280;46155;52.364;6.580;2022-12-10T10:57:26;100873.00;;;-1.17;100.00
60307;BME280;46155;52.364;6.580;2022-12-10T10:59:55;100866.66;;;-1.12;100.00
60307;BME280;46155;52.364;6.580;2022-12-10T11:04:53;100867.69;;;-1.19;100.00
60307;BME280;46155;52.364;6.580;2022-12-10T11:07:37;100874.06;;;-1.15;100.00
60307;BME280;46155;52.364;6.580;2022-12-10T11:10:16;100873.59;;;-1.20;100.00
60307;BME280;46155;52.364;6.580;2022-12-10T11:12:44;100870.25;;;-1.19;100.00
60307;BME280;46155;52.364;6.580;2022-12-10T11:15:40;100873.09;;;-1.25;100.00
60307;BME280;46155;52.364;6.580;2022-12-10T11:18:32;100873.25;;;-1.23;100.00
60307;BME280;46155;52.364;6.580;2022-12-10T11:23:31;100856.22;;;-1.30;100.00
60307;BME280;46155;52.364;6.580;2022-12-10T11:26:24;100872.84;;;-1.19;100.00
60307;BME280;46155;52.364;6.580;2022-12-10T11:32:18;100867.09;;;-1.00;100.00
60307;BME280;46155;52.364;6.580;2022-12-10T11:37:29;100857.69;;;-1.00;100.00
60307;BME280;46155;52.364;6.580;2022-12-10T11:40:27;100860.41;;;-0.98;100.00
60307;BME280;46155;52.364;6.580;2022-12-10T11:43:22;100860.09;;;-1.01;100.00
60307;BME280;46155;52.364;6.580;2022-12-10T11:51:09;100857.47;;;-1.10;100.00
60307;BME280;46155;52.364;6.580;2022-12-10T11:56:37;100855.78;;;-1.10;100.00
60307;BME280;46155;52.364;6.580;2022-12-10T11:59:16;100848.78;;;-1.11;100.00
60307;BME280;46155;52.364;6.580;2022-12-10T12:02:07;100847.06;;;-1.03;100.00
60307;BME280;46155;52.364;6.580;2022-12-10T12:10:15;100858.91;;;-0.80;100.00
60307;BME280;46155;52.364;6.580;2022-12-10T12:12:52;100852.38;;;-0.77;100.00
60307;BME280;46155;52.364;6.580;2022-12-10T12:15:24;100851.19;;;-0.80;100.00
60307;BME280;46155;52.364;6.580;2022-12-10T12:20:58;100845.00;;;-0.74;100.00
60307;BME280;46155;52.364;6.580;2022-12-10T12:23:34;100849.22;;;-0.74;100.00
60307;BME280;46155;52.364;6.580;2022-12-10T12:26:16;100847.91;;;-0.71;100.00
60307;BME280;46155;52.364;6.580;2022-12-10T12:28:52;100851.28;;;-0.63;100.00
60307;BME280;46155;52.364;6.580;2022-12-10T12:31:38;100849.63;;;-0.62;100.00
60307;BME280;46155;52.364;6.580;2022-12-10T12:34:27;100849.91;;;-0.68;100.00
60307;BME280;46155;52.364;6.580;2022-12-10T12:36:56;100841.81;;;-0.71;100.00
60307;BME280;46155;52.364;6.580;2022-12-10T12:42:26;100851.34;;;-0.54;100.00
60307;BME280;46155;52.364;6.580;2022-12-10T12:45:14;100858.44;;;-0.60;100.00
60307;BME280;46155;52.364;6.580;2022-12-10T12:50:34;100844.28;;;-0.64;100.00
60307;BME280;46155;52.364;6.580;2022-12-10T12:53:02;100845.28;;;-0.55;100.00
60307;BME280;46155;52.364;6.580;2022-12-10T12:58:34;100844.72;;;-0.43;100.00
60307;BME280;46155;52.364;6.580;2022-12-10T13:03:40;100846.94;;;-0.30;100.00
60307;BME280;46155;52.364;6.580;2022-12-10T13:08:47;100846.94;;;-0.30;100.00
60307;BME280;46155;52.364;6.580;2022-12-10T13:24:19;100859.00;;;-0.13;100.00
60307;BME280;46155;52.364;6.580;2022-12-10T13:27:18;100857.88;;;-0.24;100.00
60307;BME280;46155;52.364;6.580;2022-12-10T13:29:52;100862.94;;;-0.42;100.00
60307;BME280;46155;52.364;6.580;2022-12-10T13:32:23;100864.63;;;-0.42;100.00
60307;BME280;46155;52.364;6.580;2022-12-10T13:37:34;100877.47;;;-0.51;100.00
60307;BME280;46155;52.364;6.580;2022-12-10T13:42:35;100880.47;;;-0.55;100.00
60307;BME280;46155;52.364;6.580;2022-12-10T14:01:36;100892.28;;;-0.08;100.00
60307;BME280;46155;52.364;6.580;2022-12-10T14:06:55;100893.91;;;-0.17;100.00
60307;BME280;46155;52.364;6.580;2022-12-10T14:09:27;100895.53;;;-0.26;100.00
60307;BME280;46155;52.364;6.580;2022-12-10T14:12:01;100900.47;;;-0.37;100.00
60307;BME280;46155;52.364;6.580;2022-12-10T14:14:34;100886.28;;;-0.49;100.00
60307;BME280;46155;52.364;6.580;2022-12-10T14:17:04;100897.50;;;-0.48;100.00
60307;BME280;46155;52.364;6.580;2022-12-10T14:19:33;100904.66;;;-0.46;100.00
60307;BME280;46155;52.364;6.580;2022-12-10T14:22:04;100898.38;;;-0.57;100.00
60307;BME280;46155;52.364;6.580;2022-12-10T14:24:34;100910.50;;;-0.56;100.00
60307;BME280;46155;52.364;6.580;2022-12-10T14:27:19;100918.38;;;-0.54;100.00
60307;BME280;46155;52.364;6.580;2022-12-10T14:29:47;100907.00;;;-0.56;100.00
60307;BME280;46155;52.364;6.580;2022-12-10T14:32:14;100902.91;;;-0.54;100.00
60307;BME280;46155;52.364;6.580;2022-12-10T14:34:40;100899.28;;;-0.56;100.00
60307;BME280;46155;52.364;6.580;2022-12-10T14:37:09;100914.22;;;-0.45;100.00
60307;BME280;46155;52.364;6.580;2022-12-10T14:39:38;100907.19;;;-0.05;100.00
60307;BME280;46155;52.364;6.580;2022-12-10T14:42:06;100905.78;;;0.23;100.00
60307;BME280;46155;52.364;6.580;2022-12-10T14:44:34;100914.09;;;0.54;100.00
60307;BME280;46155;52.364;6.580;2022-12-10T14:47:04;100915.16;;;0.56;100.00
60307;BME280;46155;52.364;6.580;2022-12-10T14:49:30;100922.22;;;0.32;100.00
60307;BME280;46155;52.364;6.580;2022-12-10T14:51:56;100925.16;;;0.11;100.00
60307;BME280;46155;52.364;6.580;2022-12-10T14:56:52;100915.50;;;-0.08;100.00
60307;BME280;46155;52.364;6.580;2022-12-10T14:59:24;100904.56;;;-0.14;100.00
60307;BME280;46155;52.364;6.580;2022-12-10T15:01:56;100907.13;;;-0.14;100.00
60307;BME280;46155;52.364;6.580;2022-12-10T15:04:24;100921.91;;;-0.29;100.00
60307;BME280;46155;52.364;6.580;2022-12-10T15:06:57;100914.84;;;-0.39;100.00
60307;BME280;46155;52.364;6.580;2022-12-10T15:09:25;100921.97;;;-0.45;100.00
60307;BME280;46155;52.364;6.580;2022-12-10T15:11:58;100929.91;;;-0.59;100.00
60307;BME280;46155;52.364;6.580;2022-12-10T15:14:26;100932.56;;;-0.66;100.00
60307;BME280;46155;52.364;6.580;2022-12-10T15:16:51;100941.88;;;-0.76;100.00
60307;BME280;46155;52.364;6.580;2022-12-10T15:19:32;100932.06;;;-0.87;100.00
60307;BME280;46155;52.364;6.580;2022-12-10T15:22:00;100951.78;;;-0.72;100.00
60307;BME280;46155;52.364;6.580;2022-12-10T15:24:32;100934.63;;;-0.71;100.00
60307;BME280;46155;52.364;6.580;2022-12-10T15:27:00;100939.22;;;-0.68;100.00
60307;BME280;46155;52.364;6.580;2022-12-10T15:31:59;100949.84;;;-0.65;100.00
60307;BME280;46155;52.364;6.580;2022-12-10T15:34:27;100947.84;;;-0.52;100.00
60307;BME280;46155;52.364;6.580;2022-12-10T15:36:56;100942.69;;;-0.52;100.00
60307;BME280;46155;52.364;6.580;2022-12-10T15:39:28;100951.16;;;-0.53;100.00
60307;BME280;46155;52.364;6.580;2022-12-10T15:47:17;100953.00;;;-0.52;100.00
60307;BME280;46155;52.364;6.580;2022-12-10T15:49:43;100947.09;;;-0.51;100.00
60307;BME280;46155;52.364;6.580;2022-12-10T15:52:13;100956.31;;;-0.53;100.00
60307;BME280;46155;52.364;6.580;2022-12-10T15:54:41;100950.53;;;-0.59;100.00
60307;BME280;46155;52.364;6.580;2022-12-10T15:57:17;100949.84;;;-0.65;100.00
60307;BME280;46155;52.364;6.580;2022-12-10T15:59:44;100959.09;;;-0.67;100.00
60307;BME280;46155;52.364;6.580;2022-12-10T16:04:50;100948.47;;;-0.71;100.00
60307;BME280;46155;52.364;6.580;2022-12-10T16:07:16;100942.22;;;-0.73;100.00
60307;BME280;46155;52.364;6.580;2022-12-10T16:09:42;100943.31;;;-0.71;100.00
60307;BME280;46155;52.364;6.580;2022-12-10T16:12:11;100952.84;;;-0.70;100.00
60307;BME280;46155;52.364;6.580;2022-12-10T16:14:37;100948.94;;;-0.66;100.00
60307;BME280;46155;52.364;6.580;2022-12-10T16:17:02;100957.84;;;-0.55;100.00
60307;BME280;46155;52.364;6.580;2022-12-10T16:19:28;100949.28;;;-0.63;100.00
60307;BME280;46155;52.364;6.580;2022-12-10T16:21:53;100949.09;;;-0.64;100.00
60307;BME280;46155;52.364;6.580;2022-12-10T16:24:18;100955.00;;;-0.65;100.00
60307;BME280;46155;52.364;6.580;2022-12-10T16:26:43;100951.38;;;-0.67;100.00
60307;BME280;46155;52.364;6.580;2022-12-10T16:29:09;100954.84;;;-0.67;100.00
60307;BME280;46155;52.364;6.580;2022-12-10T16:31:34;100955.25;;;-0.71;100.00
60307;BME280;46155;52.364;6.580;2022-12-10T16:34:00;100951.63;;;-0.73;100.00
60307;BME280;46155;52.364;6.580;2022-12-10T16:36:25;100943.22;;;-0.79;100.00
60307;BME280;46155;52.364;6.580;2022-12-10T16:38:51;100955.50;;;-0.77;100.00
60307;BME280;46155;52.364;6.580;2022-12-10T16:41:22;100961.44;;;-0.78;100.00
60307;BME280;46155;52.364;6.580;2022-12-10T16:43:48;100954.13;;;-0.82;100.00
60307;BME280;46155;52.364;6.580;2022-12-10T16:46:13;100956.59;;;-0.75;100.00
60307;BME280;46155;52.364;6.580;2022-12-10T16:48:39;100953.34;;;-0.81;100.00
60307;BME280;46155;52.364;6.580;2022-12-10T16:51:12;100968.25;;;-0.78;100.00
60307;BME280;46155;52.364;6.580;2022-12-10T16:53:39;100969.44;;;-0.83;100.00
60307;BME280;46155;52.364;6.580;2022-12-10T16:56:04;100966.31;;;-0.88;100.00
60307;BME280;46155;52.364;6.580;2022-12-10T16:58:30;100976.81;;;-0.87;100.00
60307;BME280;46155;52.364;6.580;2022-12-10T17:00:55;100969.06;;;-0.87;100.00
60307;BME280;46155;52.364;6.580;2022-12-10T17:03:23;100967.66;;;-0.92;100.00
60307;BME280;46155;52.364;6.580;2022-12-10T17:08:16;100971.22;;;-0.82;100.00
60307;BME280;46155;52.364;6.580;2022-12-10T17:10:42;100966.69;;;-0.85;100.00
60307;BME280;46155;52.364;6.580;2022-12-10T17:13:26;100957.53;;;-0.90;100.00
60307;BME280;46155;52.364;6.580;2022-12-10T17:15:52;100968.16;;;-0.87;100.00
60307;BME280;46155;52.364;6.580;2022-12-10T17:18:18;100972.25;;;-0.89;100.00
60307;BME280;46155;52.364;6.580;2022-12-10T17:20:45;100976.06;;;-0.85;100.00
60307;BME280;46155;52.364;6.580;2022-12-10T17:23:11;100980.63;;;-0.83;100.00
60307;BME280;46155;52.364;6.580;2022-12-10T17:25:38;100984.03;;;-0.75;100.00
60307;BME280;46155;52.364;6.580;2022-12-10T17:28:05;100983.28;;;-0.74;100.00
60307;BME280;46155;52.364;6.580;2022-12-10T17:30:30;100987.53;;;-0.75;100.00
60307;BME280;46155;52.364;6.580;2022-12-10T17:32:56;100981.28;;;-0.77;100.00
60307;BME280;46155;52.364;6.580;2022-12-10T17:35:21;100985.78;;;-0.67;100.00
60307;BME280;46155;52.364;6.580;2022-12-10T17:37:47;100993.25;;;-0.61;100.00
60307;BME280;46155;52.364;6.580;2022-12-10T17:40:19;100984.53;;;-0.55;100.00
60307;BME280;46155;52.364;6.580;2022-12-10T17:42:45;100987.03;;;-0.47;100.00
60307;BME280;46155;52.364;6.580;2022-12-10T17:45:16;100985.34;;;-0.47;100.00
60307;BME280;46155;52.364;6.580;2022-12-10T17:47:42;100983.38;;;-0.49;100.00
60307;BME280;46155;52.364;6.580;2022-12-10T17:50:27;100987.03;;;-0.47;100.00
60307;BME280;46155;52.364;6.580;2022-12-10T17:52:54;100985.69;;;-0.60;100.00
60307;BME280;46155;52.364;6.580;2022-12-10T17:55:19;100981.16;;;-0.62;100.00
60307;BME280;46155;52.364;6.580;2022-12-10T17:57:45;100985.38;;;-0.63;100.00
60307;BME280;46155;52.364;6.580;2022-12-10T18:00:18;100987.78;;;-0.64;100.00
60307;BME280;46155;52.364;6.580;2022-12-10T18:02:44;100976.81;;;-0.71;100.00
60307;BME280;46155;52.364;6.580;2022-12-10T18:05:09;100981.56;;;-0.66;100.00
60307;BME280;46155;52.364;6.580;2022-12-10T18:07:35;100981.94;;;-0.39;100.00
60307;BME280;46155;52.364;6.580;2022-12-10T18:10:01;100982.41;;;-0.18;100.00
60307;BME280;46155;52.364;6.580;2022-12-10T18:12:27;100978.13;;;-0.18;100.00
60307;BME280;46155;52.364;6.580;2022-12-10T18:14:52;100976.25;;;-0.27;100.00
60307;BME280;46155;52.364;6.580;2022-12-10T18:17:17;100973.50;;;-0.29;100.00
60307;BME280;46155;52.364;6.580;2022-12-10T18:19:43;100980.94;;;-0.32;100.00
60307;BME280;46155;52.364;6.580;2022-12-10T18:22:09;100976.56;;;-0.24;100.00
60307;BME280;46155;52.364;6.580;2022-12-10T18:24:34;100974.75;;;-0.25;100.00
60307;BME280;46155;52.364;6.580;2022-12-10T18:27:00;100972.75;;;-0.28;100.00
60307;BME280;46155;52.364;6.580;2022-12-10T18:29:26;100986.31;;;-0.22;100.00
60307;BME280;46155;52.364;6.580;2022-12-10T18:31:51;100977.66;;;-0.22;100.00
60307;BME280;46155;52.364;6.580;2022-12-10T18:34:17;100971.34;;;-0.33;100.00